Time;durP1;ratioP1;P1;durP2;ratioP2;P2;SDS_P1;SDS_P2;PMS_P1;PMS_P2;Temp;Humidity;BMP_temperature;BMP_pressure;BME280_temperature;BME280_humidity;BME280_pressure;Samples;Min_cycle;Max_cycle;Signal;HPM_P1;HPM_P2
2022/09/27 00:02:04;;;;;;;9.15;1.33;;;;;;;;;;5033847;28;20044;-74
2022/09/27 00:04:30;;;;;;;5.65;1.10;;;;;;;;;;5033937;28;20041;-74
2022/09/27 00:06:56;;;;;;;6.35;1.20;;;;;;;;;;5034310;28;20048;-74
2022/09/27 00:09:22;;;;;;;7.55;1.13;;;;;;;;;;5033956;28;20041;-74
2022/09/27 00:11:49;;;;;;;5.72;1.33;;;;;;;;;;5033822;28;20045;-74
2022/09/27 00:14:16;;;;;;;5.50;1.10;;;10.70;99.90;;;;;;5034049;28;20045;-74
2022/09/27 00:16:43;;;;;;;5.65;1.10;;;10.70;99.90;;;;;;5050387;28;20099;-74
2022/09/27 00:19:17;;;;;;;4.60;0.90;;;10.80;99.90;;;;;;5033646;28;20489;-74
2022/09/27 00:21:44;;;;;;;8.90;1.20;;;;;;;;;;5050486;28;20099;-74
2022/09/27 00:24:15;;;;;;;6.50;0.80;;;10.80;99.90;;;;;;5033759;28;20037;-74
2022/09/27 00:26:41;;;;;;;4.13;0.90;;;;;;;;;;5034659;28;20508;-74
2022/09/27 00:29:09;;;;;;;5.05;1.02;;;;;;;;;;5033453;28;20049;-75
2022/09/27 00:31:35;;;;;;;5.28;0.93;;;;;;;;;;5033722;28;20057;-74
2022/09/27 00:34:02;;;;;;;6.35;1.17;;;;;;;;;;5033534;28;20049;-74
2022/09/27 00:36:29;;;;;;;3.47;0.90;;;;;;;;;;5033308;28;20052;-74
2022/09/27 00:38:55;;;;;;;4.70;1.00;;;;;;;;;;5033165;28;20053;-74
2022/09/27 00:41:25;;;;;;;2.63;0.70;;;;;;;;;;5033318;28;20053;-74
2022/09/27 00:43:54;;;;;;;2.97;0.80;;;10.80;99.90;;;;;;5033752;28;20041;-74
2022/09/27 00:46:27;;;;;;;3.22;1.02;;;11.00;99.90;;;;;;5016926;28;20041;-74
2022/09/27 00:49:03;;;;;;;3.50;1.15;;;;;;;;;;5033134;28;20045;-74
2022/09/27 00:51:31;;;;;;;8.90;1.10;;;10.60;99.90;;;;;;5033042;28;20049;-74
2022/09/27 00:53:58;;;;;;;7.32;1.15;;;;;;;;;;5032426;28;20398;-74
2022/09/27 00:56:28;;;;;;;2.55;0.95;;;10.60;99.90;;;;;;5032589;28;20129;-74
2022/09/27 00:59:19;;;;;;;7.53;1.23;;;10.50;99.90;;;;;;5049925;28;20127;-74
2022/09/27 01:01:45;;;;;;;9.18;2.47;;;;;;;;;;5032778;28;20041;-74
2022/09/27 01:04:13;;;;;;;9.18;1.20;;;;;;;;;;5032736;28;20045;-74
2022/09/27 01:06:39;;;;;;;10.85;1.20;;;;;;;;;;5032797;28;20052;-74
2022/09/27 01:09:07;;;;;;;12.23;1.40;;;10.70;99.90;;;;;;5032950;28;20044;-74
2022/09/27 01:12:14;;;;;;;12.02;1.40;;;10.70;99.90;;;;;;5049652;28;20041;-74
2022/09/27 01:14:42;;;;;;;6.63;1.50;;;10.70;99.90;;;;;;5011916;28;20108;-74
2022/09/27 01:17:09;;;;;;;7.45;1.20;;;;;;;;;;5043627;28;20080;-74
2022/09/27 01:19:38;;;;;;;8.10;1.40;;;;;;;;;;5032539;28;20037;-74
2022/09/27 01:22:29;;;;;;;7.55;1.20;;;10.90;99.90;;;;;;5032600;28;20116;-75
2022/09/27 01:24:55;;;;;;;6.55;1.10;;;;;;;;;;5032491;28;20125;-74
2022/09/27 01:28:02;;;;;;;5.90;1.30;;;10.70;99.90;;;;;;5032757;28;20053;-75
2022/09/27 01:30:31;;;;;;;4.82;1.75;;;;;;;;;;5015768;28;20420;-74
2022/09/27 01:33:13;;;;;;;3.30;0.88;;;10.90;99.90;;;;;;5032415;28;20524;-74
2022/09/27 01:35:42;;;;;;;4.35;1.38;;;;;;;;;;5032257;28;20042;-74
2022/09/27 01:38:16;;;;;;;5.07;0.80;;;10.60;99.90;;;;;;5032240;28;20494;-74
2022/09/27 01:41:00;;;;;;;2.60;0.80;;;10.60;99.90;;;;;;5049331;28;20452;-74
2022/09/27 01:43:36;;;;;;;2.60;0.65;;;10.60;99.90;;;;;;5032408;28;20033;-74
2022/09/27 01:46:06;;;;;;;7.47;1.77;;;;;;;;;;5032487;28;20111;-74
2022/09/27 01:48:37;;;;;;;3.92;0.98;;;10.60;99.90;;;;;;5032158;28;20485;-75
2022/09/27 01:51:19;;;;;;;4.65;0.90;;;10.50;99.90;;;;;;5031549;28;20405;-74
2022/09/27 01:53:59;;;;;;;3.77;0.90;;;10.70;99.90;;;;;;5031979;28;20045;-74
2022/09/27 01:56:45;;;;;;;6.30;0.98;;;;;;;;;;5015590;28;20299;-74
2022/09/27 01:59:14;;;;;;;7.03;1.00;;;;;;;;;;5032087;28;20058;-74
2022/09/27 02:01:44;;;;;;;7.05;1.05;;;10.50;99.90;;;;;;5031976;28;20041;-74
2022/09/27 02:04:12;;;;;;;7.80;1.00;;;;;;;;;;5048417;28;20044;-74
2022/09/27 02:06:39;;;;;;;5.15;1.20;;;;;;;;;;5015559;28;20080;-74
2022/09/27 02:09:17;;;;;;;12.98;1.25;;;10.50;99.90;;;;;;5015827;28;20119;-74
2022/09/27 02:11:47;;;;;;;4.20;0.75;;;;;;;;;;5031892;28;20049;-74
2022/09/27 02:14:35;;;;;;;5.03;0.80;;;10.50;99.90;;;;;;5015464;28;20043;-74
2022/09/27 02:17:11;;;;;;;5.10;0.80;;;;;;;;;;5031804;28;20073;-74
2022/09/27 02:19:41;;;;;;;8.55;0.90;;;;;;;;;;5015368;28;20053;-74
2022/09/27 02:22:10;;;;;;;9.00;1.00;;;;;;;;;;5031738;28;20440;-74
2022/09/27 02:24:56;;;;;;;3.22;0.63;;;;;;;;;;5031777;28;20037;-74
2022/09/27 02:27:29;;;;;;;1.27;0.57;;;10.40;99.90;;;;;;5011806;28;20085;-74
2022/09/27 02:30:13;;;;;;;3.40;1.50;;;10.60;99.90;;;;;;5031786;28;20132;-74
2022/09/27 02:32:39;;;;;;;3.40;0.98;;;;;;;;;;5031821;28;20057;-75
2022/09/27 02:35:18;;;;;;;5.85;0.80;;;10.50;99.90;;;;;;5031582;28;20045;-74
2022/09/27 02:37:44;;;;;;;12.93;1.88;;;;;;;;;;5048469;28;20118;-75
2022/09/27 02:40:11;;;;;;;11.23;1.10;;;;;;;;;;5014973;28;20096;-75
2022/09/27 02:42:37;;;;;;;10.15;1.17;;;10.50;99.90;;;;;;5015157;28;20146;-75
2022/09/27 02:45:04;;;;;;;14.40;1.90;;;;;;;;;;4999083;28;20046;-75
2022/09/27 02:47:49;;;;;;;9.60;1.95;;;;;;;;;;5033108;28;20048;-75
2022/09/27 02:50:32;;;;;;;8.40;1.13;;;;;;;;;;5015146;28;20042;-75
2022/09/27 02:52:59;;;;;;;8.60;1.30;;;;;;;;;;5015401;28;20081;-76
2022/09/27 02:55:34;;;;;;;1.73;0.73;;;;;;;;;;5031337;28;20088;-76
2022/09/27 02:58:45;;;;;;;5.47;0.82;;;10.00;99.90;;;;;;5031430;28;20041;-76
2022/09/27 03:01:23;;;;;;;4.72;0.75;;;;;;;;;;5040466;28;20057;-76
2022/09/27 03:03:56;;;;;;;3.75;0.68;;;;;;;;;;5035133;28;20037;-75
2022/09/27 03:06:23;;;;;;;5.50;0.88;;;;;;;;;;5035090;28;20045;-75
2022/09/27 03:08:49;;;;;;;4.00;0.90;;;;;;;;;;5034850;28;20579;-75
2022/09/27 03:11:16;;;;;;;4.03;0.70;;;;;;;;;;5035025;28;20573;-75
2022/09/27 03:13:43;;;;;;;1.35;0.60;;;;;;;;;;5034765;28;20501;-75
2022/09/27 03:16:09;;;;;;;5.82;1.63;;;;;;;;;;5034940;28;20440;-75
2022/09/27 03:18:35;;;;;;;6.63;0.88;;;;;;;;;;5034719;28;20041;-74
2022/09/27 03:21:01;;;;;;;5.78;0.80;;;;;;;;;;5036086;28;20068;-74
2022/09/27 03:23:27;;;;;;;5.00;0.90;;;;;;;;;;5034754;28;20478;-74
2022/09/27 03:25:53;;;;;;;7.90;1.08;;;;;;;;;;5018395;28;20037;-74
2022/09/27 03:28:20;;;;;;;6.03;1.35;;;;;;;;;;5018066;28;20125;-74
2022/09/27 03:30:46;;;;;;;11.98;1.23;;;;;;;;;;5018036;28;20048;-74
2022/09/27 03:33:12;;;;;;;5.80;1.40;;;;;;;;;;5034835;28;20045;-74
2022/09/27 03:35:38;;;;;;;10.55;1.30;;;;;;;;;;5034620;28;20041;-74
2022/09/27 03:38:06;;;;;;;9.35;1.33;;;;;;;;;;5017896;28;20041;-74
2022/09/27 03:40:32;;;;;;;13.80;1.45;;;;;;;;;;5034585;28;20049;-74
2022/09/27 03:42:58;;;;;;;8.00;1.20;;;;;;;;;;5034368;28;20535;-74
2022/09/27 03:45:24;;;;;;;9.55;1.38;;;;;;;;;;5018202;28;20079;-74
2022/09/27 03:47:50;;;;;;;7.75;1.23;;;;;;;;;;5034301;28;20045;-74
2022/09/27 03:50:16;;;;;;;11.95;1.30;;;;;;;;;;5034470;28;20367;-74
2022/09/27 03:52:43;;;;;;;5.03;0.75;;;;;;;;;;5034191;28;20104;-74
2022/09/27 03:55:09;;;;;;;3.20;0.90;;;10.20;99.90;;;;;;5034426;28;20103;-74
2022/09/27 03:57:35;;;;;;;7.07;1.00;;;;;;;;;;5034191;28;20121;-74
2022/09/27 04:00:02;;;;;;;4.22;0.93;;;;;;;;;;5034487;28;20103;-74
2022/09/27 04:02:28;;;;;;;4.68;0.95;;;;;;;;;;5034341;28;20073;-74
2022/09/27 04:04:54;;;;;;;10.77;1.13;;;;;;;;;;5033882;28;20124;-74
2022/09/27 04:07:20;;;;;;;3.78;1.52;;;;;;;;;;5033886;28;20497;-74
2022/09/27 04:09:46;;;;;;;7.07;0.93;;;;;;;;;;5017800;28;20445;-74
2022/09/27 04:12:12;;;;;;;4.22;1.48;;;;;;;;;;5033812;28;20045;-74
2022/09/27 04:14:39;;;;;;;4.05;0.90;;;;;;;;;;5033538;28;20046;-74
2022/09/27 04:17:05;;;;;;;6.10;0.93;;;;;;;;;;5017163;28;20490;-74
2022/09/27 04:19:31;;;;;;;5.75;1.17;;;;;;;;;;5017400;28;20138;-74
2022/09/27 04:21:57;;;;;;;4.40;0.90;;;;;;;;;;5033878;28;20041;-74
2022/09/27 04:24:24;;;;;;;5.43;1.08;;;;;;;;;;5017178;28;20040;-74
2022/09/27 04:26:50;;;;;;;6.80;1.42;;;;;;;;;;5014053;28;20119;-74
2022/09/27 04:29:17;;;;;;;3.35;0.85;;;;;;;;;;5013970;28;20060;-75
2022/09/27 04:31:43;;;;;;;5.03;0.90;;;;;;;;;;5013883;28;20486;-75
2022/09/27 04:34:10;;;;;;;3.85;0.90;;;10.20;99.90;;;;;;5013525;28;20069;-74
2022/09/27 04:36:36;;;;;;;5.00;2.00;;;;;;;;;;5013511;28;20053;-74
2022/09/27 04:39:05;;;;;;;5.78;1.00;;;10.10;99.90;;;;;;5023969;28;20095;-74
2022/09/27 04:41:31;;;;;;;5.18;0.90;;;;;;;;;;5033282;28;20104;-74
2022/09/27 04:43:59;;;;;;;6.43;1.25;;;10.10;99.90;;;;;;5033643;28;20091;-74
2022/09/27 04:46:25;;;;;;;2.95;1.10;;;;;;;;;;5033320;28;20459;-74
2022/09/27 04:48:51;;;;;;;6.30;1.10;;;;;;;;;;5033346;28;20056;-74
2022/09/27 04:51:18;;;;;;;4.15;0.90;;;;;;;;;;5016915;28;20051;-74
2022/09/27 04:53:44;;;;;;;3.45;1.13;;;;;;;;;;5017111;28;20394;-74
2022/09/27 04:56:11;;;;;;;4.93;1.15;;;;;;;;;;5032868;28;20045;-74
2022/09/27 04:58:37;;;;;;;5.03;1.30;;;;;;;;;;5016588;28;20045;-77
2022/09/27 05:01:04;;;;;;;9.93;2.45;;;;;;;;;;5016592;28;20037;-76
2022/09/27 05:03:33;;;;;;;7.63;0.98;;;;;;;;;;5032764;28;20041;-76
2022/09/27 05:05:59;;;;;;;1.15;0.80;;;;;;;;;;5032715;28;20053;-76
2022/09/27 05:08:25;;;;;;;7.07;1.05;;;;;;;;;;5016647;28;20096;-69
2022/09/27 05:10:51;;;;;;;4.25;1.13;;;;;;;;;;5016132;28;20072;-76
2022/09/27 05:13:17;;;;;;;9.20;1.92;;;;;;;;;;5032479;28;20045;-75
2022/09/27 05:15:44;;;;;;;3.88;1.10;;;;;;;;;;5032516;28;20045;-75
2022/09/27 05:18:10;;;;;;;3.40;0.82;;;;;;;;;;5048738;28;20037;-74
2022/09/27 05:20:36;;;;;;;7.82;1.20;;;10.30;99.90;;;;;;5015697;28;20037;-75
2022/09/27 05:23:03;;;;;;;5.45;1.20;;;;;;;;;;5032377;28;20049;-74
2022/09/27 05:25:30;;;;;;;5.82;1.00;;;;;;;;;;5031644;28;20093;-75
2022/09/27 05:27:57;;;;;;;6.50;1.08;;;;;;;;;;5032186;28;20041;-74
2022/09/27 05:30:23;;;;;;;3.85;1.83;;;;;;;;;;5032440;28;20076;-74
2022/09/27 05:32:50;;;;;;;6.90;1.20;;;;;;;;;;5032305;28;20049;-74
2022/09/27 05:35:18;;;;;;;2.78;1.63;;;10.10;99.90;;;;;;5032022;28;20888;-74
2022/09/27 05:37:54;;;;;;;7.10;1.25;;;10.40;99.90;;;;;;5032099;28;20456;-74
2022/09/27 05:40:23;;;;;;;6.97;1.40;;;;;;;;;;5032025;28;20045;-74
2022/09/27 05:42:49;;;;;;;7.20;1.23;;;;;;;;;;5031983;28;20047;-74
2022/09/27 05:45:16;;;;;;;5.22;0.90;;;;;;;;;;5015700;28;20087;-74
2022/09/27 05:47:42;;;;;;;8.02;2.30;;;;;;;;;;5032415;28;20217;-74
2022/09/27 05:50:08;;;;;;;7.45;1.60;;;;;;;;;;5032072;28;20045;-74
2022/09/27 05:52:35;;;;;;;4.80;1.10;;;;;;;;;;5031905;28;20103;-74
2022/09/27 05:55:01;;;;;;;9.95;1.60;;;;;;;;;;5032163;28;20061;-75
2022/09/27 05:57:27;;;;;;;7.90;1.70;;;;;;;;;;5015394;28;20482;-74
2022/09/27 05:59:53;;;;;;;8.10;1.35;;;;;;;;;;5032296;28;20473;-74
2022/09/27 06:02:19;;;;;;;5.00;1.02;;;;;;;;;;5032272;28;20037;-74
2022/09/27 06:04:45;;;;;;;6.97;1.00;;;;;;;;;;5032042;28;20045;-74
2022/09/27 06:07:11;;;;;;;9.73;1.27;;;;;;;;;;5032063;28;20049;-74
2022/09/27 06:09:37;;;;;;;5.00;1.92;;;;;;;;;;5032096;28;20132;-74
2022/09/27 06:12:03;;;;;;;6.35;0.80;;;;;;;;;;5015467;28;20050;-74
2022/09/27 06:14:29;;;;;;;6.40;1.10;;;;;;;;;;5031726;28;20045;-74
2022/09/27 06:16:55;;;;;;;8.88;1.00;;;;;;;;;;5015287;28;20041;-79
2022/09/27 06:19:22;;;;;;;4.28;1.00;;;;;;;;;;5030467;28;20050;-74
2022/09/27 06:21:50;;;;;;;5.38;1.10;;;10.30;99.90;;;;;;5030451;28;20095;-74
2022/09/27 06:24:16;;;;;;;5.65;1.35;;;;;;;;;;5015132;28;20091;-74
2022/09/27 06:26:42;;;;;;;4.22;1.42;;;;;;;;;;5031787;28;20128;-74
2022/09/27 06:29:09;;;;;;;5.03;1.02;;;;;;;;;;5031843;28;20079;-74
2022/09/27 06:31:35;;;;;;;9.88;1.38;;;;;;;;;;5031858;28;20046;-74
2022/09/27 06:34:01;;;;;;;4.30;1.30;;;;;;;;;;5015392;28;20073;-74
2022/09/27 06:36:27;;;;;;;2.45;0.90;;;;;;;;;;5032956;28;20123;-74
2022/09/27 06:38:53;;;;;;;4.72;0.95;;;;;;;;;;5035736;28;20095;-74
2022/09/27 06:41:19;;;;;;;4.57;1.45;;;;;;;;;;5036969;28;20041;-75
2022/09/27 06:43:48;;;;;;;3.38;1.08;;;10.40;99.90;;;;;;5019341;28;20037;-74
2022/09/27 06:46:14;;;;;;;3.78;1.35;;;;;;;;;;5035479;28;20517;-74
2022/09/27 06:48:41;;;;;;;8.85;1.48;;;;;;;;;;5035697;28;20056;-74
2022/09/27 06:51:07;;;;;;;9.65;1.77;;;;;;;;;;5034647;28;20052;-74
2022/09/27 06:53:33;;;;;;;7.28;1.27;;;;;;;;;;5035231;28;20135;-75
2022/09/27 06:56:00;;;;;;;5.07;1.08;;;10.70;99.90;;;;;;5035436;28;20107;-75
2022/09/27 07:01:13;;;;;;;5.57;1.90;;;;;;;;;;5035435;28;20046;-74
2022/09/27 07:03:42;;;;;;;15.50;1.95;;;;;;;;;;5018884;28;20120;-74
2022/09/27 07:06:17;;;;;;;29.58;5.72;;;10.40;99.90;;;;;;5018660;28;20045;-74
2022/09/27 07:08:43;;;;;;;13.50;2.92;;;;;;;;;;5051987;28;20049;-74
2022/09/27 07:11:09;;;;;;;5.97;1.10;;;;;;;;;;5035031;28;20037;-74
2022/09/27 07:13:39;;;;;;;4.57;1.30;;;;;;;;;;5035361;28;20037;-74
2022/09/27 07:16:06;;;;;;;9.73;2.40;;;;;;;;;;5018679;28;20437;-75
2022/09/27 07:18:32;;;;;;;6.63;1.30;;;;;;;;;;5018486;28;20045;-75
2022/09/27 07:20:59;;;;;;;4.75;1.23;;;;;;;;;;5033681;28;20037;-76
2022/09/27 07:23:25;;;;;;;2.90;1.20;;;;;;;;;;5033581;28;20041;-75
2022/09/27 07:25:51;;;;;;;9.75;1.30;;;;;;;;;;5035172;28;20041;-75
2022/09/27 07:28:18;;;;;;;4.18;0.90;;;;;;;;;;5036040;28;20124;-74
2022/09/27 07:30:45;;;;;;;1.77;0.70;;;10.30;99.90;;;;;;5034855;28;20381;-75
2022/09/27 07:33:11;;;;;;;3.00;0.95;;;;;;;;;;5035101;28;20048;-74
2022/09/27 07:35:42;;;;;;;6.55;1.00;;;;;;;;;;5018174;28;20049;-73
2022/09/27 07:38:11;;;;;;;1.17;0.70;;;;;;;;;;5050930;28;20064;-73
2022/09/27 07:40:38;;;;;;;2.63;0.82;;;;;;;;;;5051216;28;20045;-74
2022/09/27 07:43:05;;;;;;;5.15;1.55;;;;;;;;;;5017981;28;20049;-74
2022/09/27 07:45:31;;;;;;;0.70;0.70;;;;;;;;;;5050946;28;20049;-74
2022/09/27 07:47:57;;;;;;;4.65;1.15;;;;;;;;;;5033288;28;20101;-74
2022/09/27 07:50:24;;;;;;;7.97;1.58;;;;;;;;;;5034289;28;20477;-73
2022/09/27 07:52:50;;;;;;;6.53;1.10;;;;;;;;;;5034040;28;20072;-73
2022/09/27 07:55:17;;;;;;;4.95;1.58;;;11.00;99.90;;;;;;5034060;28;20049;-73
2022/09/27 07:57:44;;;;;;;8.20;1.33;;;;;;;;;;5050673;28;20088;-73
2022/09/27 08:00:13;;;;;;;7.65;1.10;;;10.80;99.90;;;;;;5034315;28;20037;-73
2022/09/27 08:02:43;;;;;;;21.45;1.38;;;11.10;99.90;;;;;;5050514;28;20061;-73
2022/09/27 08:05:11;;;;;;;7.63;1.00;;;11.20;99.90;;;;;;5017647;28;20025;-74
2022/09/27 08:07:38;;;;;;;3.85;0.80;;;;;;;;;;5033991;28;20080;-73
2022/09/27 08:10:04;;;;;;;8.85;1.30;;;;;;;;;;5050483;28;20041;-73
2022/09/27 08:12:31;;;;;;;3.80;1.05;;;;;;;;;;5034160;28;20037;-74
2022/09/27 08:15:00;;;;;;;8.45;1.38;;;;;;;;;;5033672;28;20048;-74
2022/09/27 08:17:29;;;;;;;6.93;1.30;;;;;;;;;;5035311;28;20037;-73
2022/09/27 08:19:55;;;;;;;6.32;1.20;;;;;;;;;;5033865;28;20040;-74
2022/09/27 08:22:22;;;;;;;7.20;2.40;;;;;;;;;;5055737;28;20045;-73
2022/09/27 08:24:48;;;;;;;6.57;1.25;;;;;;;;;;5033766;28;20049;-73
2022/09/27 08:27:15;;;;;;;7.03;1.27;;;11.20;99.90;;;;;;5017393;28;20042;-73
2022/09/27 08:29:41;;;;;;;3.53;1.20;;;;;;;;;;5066857;28;20064;-74
2022/09/27 08:32:08;;;;;;;5.90;1.25;;;11.30;99.90;;;;;;5033704;28;20051;-74
2022/09/27 08:34:37;;;;;;;4.70;1.52;;;;;;;;;;5050800;28;20048;-74
2022/09/27 08:37:04;;;;;;;6.65;1.30;;;;;;;;;;5033530;28;20045;-74
2022/09/27 08:39:30;;;;;;;8.10;1.27;;;;;;;;;;5033251;28;20080;-74
2022/09/27 08:42:12;;;;;;;8.75;1.42;;;;;;;;;;5016866;28;20038;-74
2022/09/27 08:44:53;;;;;;;5.30;1.45;;;11.30;99.90;;;;;;5033253;28;20042;-74
2022/09/27 08:47:22;;;;;;;7.22;1.40;;;;;;;;;;5033444;28;20056;-74
2022/09/27 08:50:17;;;;;;;7.93;1.83;;;11.30;99.90;;;;;;5033413;28;20034;-74
2022/09/27 08:52:49;;;;;;;7.20;1.63;;;11.60;99.90;;;;;;5032809;28;20049;-74
2022/09/27 08:55:37;;;;;;;5.13;1.35;;;11.10;99.90;;;;;;5040209;28;20053;-73
2022/09/27 08:58:37;;;;;;;3.90;1.08;;;11.20;99.90;;;;;;5032885;28;20049;-74
2022/09/27 09:01:07;;;;;;;7.97;2.08;;;;;;;;;;5016143;28;20485;-74
2022/09/27 09:03:35;;;;;;;7.63;1.17;;;;;;;;;;5032821;28;20037;-74
2022/09/27 09:06:01;;;;;;;4.72;1.20;;;;;;;;;;5033058;28;20037;-74
2022/09/27 09:08:43;;;;;;;6.78;1.20;;;11.40;99.90;;;;;;5032882;28;20533;-74
2022/09/27 09:14:06;;;;;;;9.45;1.60;;;;;;;;;;5032726;28;20136;-74
2022/09/27 09:16:52;;;;;;;2.28;1.00;;;11.60;99.90;;;;;;5015931;28;20041;-74
2022/09/27 09:19:27;;;;;;;10.05;1.40;;;;;;;;;;5032305;28;20553;-74
2022/09/27 09:21:53;;;;;;;4.97;1.20;;;;;;;;;;5032328;28;20069;-74
2022/09/27 09:24:19;;;;;;;11.00;1.20;;;;;;;;;;5031442;28;20091;-74
2022/09/27 09:26:45;;;;;;;8.52;1.08;;;;;;;;;;5032639;28;20045;-74
2022/09/27 09:29:11;;;;;;;3.08;0.90;;;;;;;;;;5032480;28;20055;-74
2022/09/27 09:31:42;;;;;;;4.28;1.23;;;12.30;99.90;;;;;;5032282;28;20041;-73
2022/09/27 09:34:18;;;;;;;10.68;2.22;;;;;;;;;;5032509;28;20049;-74
2022/09/27 09:37:00;;;;;;;12.40;1.40;;;12.20;99.90;;;;;;5032310;28;20041;-74
2022/09/27 09:39:50;;;;;;;10.77;1.70;;;12.40;99.90;;;;;;5032164;28;20429;-71
2022/09/27 09:42:41;;;;;;;3.42;1.30;;;12.00;99.90;;;;;;5028167;28;20045;-70
2022/09/27 09:45:08;;;;;;;10.88;1.42;;;;;;;;;;5033456;28;20048;-71
2022/09/27 09:47:50;;;;;;;4.95;1.08;;;12.20;99.90;;;;;;5032341;28;20520;-71
2022/09/27 09:50:22;;;;;;;2.07;0.90;;;;;;;;;;5032131;28;20051;-70
2022/09/27 09:52:58;;;;;;;9.43;1.25;;;11.80;99.90;;;;;;5032090;28;20291;-71
2022/09/27 09:55:32;;;;;;;5.78;0.82;;;11.80;99.90;;;;;;5033233;28;20513;-71
2022/09/27 09:58:19;;;;;;;6.07;2.03;;;11.50;99.90;;;;;;5032129;28;20076;-70
2022/09/27 10:00:49;;;;;;;5.07;0.70;;;11.50;99.90;;;;;;5032142;28;20402;-71
2022/09/27 10:03:15;;;;;;;7.28;0.93;;;;;;;;;;5031825;28;20603;-72
2022/09/27 10:05:43;;;;;;;4.18;0.75;;;;;;;;;;5031988;28;20046;-72
2022/09/27 10:08:12;;;;;;;2.15;0.70;;;;;;;;;;5031794;28;20041;-72
2022/09/27 10:10:39;;;;;;;2.15;0.98;;;11.30;99.90;;;;;;5015075;28;20099;-72
2022/09/27 10:13:05;;;;;;;5.82;1.10;;;;;;;;;;5031528;28;20041;-72
2022/09/27 10:15:31;;;;;;;4.32;0.80;;;;;;;;;;5031758;28;20375;-71
2022/09/27 10:17:58;;;;;;;10.88;1.52;;;;;;;;;;5031790;28;20041;-71
2022/09/27 10:20:30;;;;;;;5.97;1.00;;;;;;;;;;5031791;28;20041;-71
2022/09/27 10:23:03;;;;;;;3.83;0.90;;;11.80;99.90;;;;;;5035227;28;20367;-70
2022/09/27 10:25:53;;;;;;;6.47;0.95;;;11.70;99.90;;;;;;5034906;28;20042;-70
2022/09/27 10:28:42;;;;;;;5.45;1.20;;;11.70;99.90;;;;;;5033027;28;20033;-70
2022/09/27 10:31:19;;;;;;;5.43;0.93;;;;;;;;;;5031245;28;20044;-70
2022/09/27 10:34:00;;;;;;;7.82;1.67;;;;;;;;;;5029513;28;20038;-68
2022/09/27 10:36:29;;;;;;;5.00;0.80;;;12.00;99.90;;;;;;5031669;28;20104;-70
2022/09/27 10:38:57;;;;;;;2.72;1.02;;;;;;;;;;5031600;28;20057;-71
2022/09/27 10:41:33;;;;;;;4.65;1.75;;;;;;;;;;5031573;28;20498;-71
2022/09/27 10:44:14;;;;;;;1.75;0.82;;;11.90;99.90;;;;;;5031605;28;20390;-71
2022/09/27 10:46:41;;;;;;;4.43;0.70;;;;;;;;;;5015294;28;20042;-71
2022/09/27 10:49:07;;;;;;;2.83;0.82;;;;;;;;;;5031497;28;20045;-71
2022/09/27 10:51:34;;;;;;;5.97;1.17;;;;;;;;;;5031500;28;20057;-70
2022/09/27 10:54:00;;;;;;;3.67;0.80;;;;;;;;;;5031236;28;20038;-70
2022/09/27 10:56:33;;;;;;;3.10;0.80;;;12.20;99.90;;;;;;5049824;28;20501;-70
2022/09/27 10:59:00;;;;;;;2.97;0.82;;;;;;;;;;5062142;28;20036;-71
2022/09/27 11:01:37;;;;;;;3.83;0.93;;;12.20;99.90;;;;;;5031497;28;20474;-71
2022/09/27 11:04:03;;;;;;;6.53;0.90;;;;;;;;;;5033452;28;20385;-70
2022/09/27 11:06:37;;;;;;;6.05;0.98;;;12.20;99.90;;;;;;5051339;28;20045;-71
2022/09/27 11:09:22;;;;;;;6.00;1.38;;;12.10;99.90;;;;;;5043301;28;20033;-71
2022/09/27 11:11:48;;;;;;;4.00;1.20;;;;;;;;;;5027420;28;20043;-71
2022/09/27 11:14:22;;;;;;;1.42;0.60;;;12.30;99.90;;;;;;5001865;28;20034;-71
2022/09/27 11:16:54;;;;;;;4.32;1.42;;;12.20;99.90;;;;;;5043771;28;20037;-71
2022/09/27 11:19:25;;;;;;;6.57;0.90;;;11.90;99.90;;;;;;5015808;28;20512;-71
2022/09/27 11:22:03;;;;;;;3.97;1.10;;;12.10;99.90;;;;;;5016458;28;20285;-71
2022/09/27 11:24:32;;;;;;;3.45;0.75;;;;;;;;;;5014535;28;20096;-71
2022/09/27 11:27:15;;;;;;;3.22;0.90;;;12.40;99.90;;;;;;5030572;28;20048;-70
2022/09/27 11:29:50;;;;;;;3.13;0.90;;;;;;;;;;5029791;28;20068;-71
2022/09/27 11:32:35;;;;;;;6.32;1.50;;;;;;;;;;5029767;28;20110;-71
2022/09/27 11:35:05;;;;;;;2.72;0.70;;;;;;;;;;5028091;28;20134;-71
2022/09/27 11:37:50;;;;;;;3.67;1.05;;;;;;;;;;5027223;28;20151;-70
2022/09/27 11:40:26;;;;;;;1.77;0.73;;;;;;;;;;5027197;28;20046;-70
2022/09/27 11:43:29;;;;;;;2.05;1.33;;;12.50;99.90;;;;;;5017474;28;20037;-70
2022/09/27 11:46:16;;;;;;;5.97;0.98;;;;;;;;;;5032325;28;20107;-70
2022/09/27 11:49:05;;;;;;;9.98;2.03;;;12.60;99.90;;;;;;5034406;28;20048;-70
2022/09/27 11:51:34;;;;;;;3.85;0.85;;;;;;;;;;5033849;28;20405;-70
2022/09/27 11:54:31;;;;;;;3.13;0.77;;;12.90;99.90;;;;;;5034288;28;20482;-69
2022/09/27 11:57:21;;;;;;;7.55;1.10;;;13.10;99.90;;;;;;5033101;28;20041;-69
2022/09/27 12:00:11;;;;;;;5.25;1.00;;;13.20;99.90;;;;;;5034507;28;20049;-70
2022/09/27 12:02:59;;;;;;;5.15;1.00;;;13.20;99.90;;;;;;5034170;28;20042;-70
2022/09/27 12:05:43;;;;;;;6.53;1.35;;;13.50;99.90;;;;;;5033934;28;20041;-69
2022/09/27 12:08:31;;;;;;;5.95;1.00;;;13.60;99.90;;;;;;5016372;28;20037;-69
2022/09/27 12:11:09;;;;;;;3.05;0.93;;;13.40;99.90;;;;;;5033800;28;20043;-69
2022/09/27 12:13:44;;;;;;;5.10;1.00;;;13.10;99.90;;;;;;5033860;28;20037;-69
2022/09/27 12:16:14;;;;;;;5.30;0.70;;;12.80;99.90;;;;;;5033967;28;20567;-70
2022/09/27 12:18:41;;;;;;;2.58;0.60;;;;;;;;;;5033928;28;20378;-70
2022/09/27 12:21:10;;;;;;;3.60;0.88;;;12.20;99.90;;;;;;5033982;28;20082;-71
2022/09/27 12:24:02;;;;;;;3.40;1.05;;;12.10;99.90;;;;;;5033759;28;20038;-72
2022/09/27 12:26:28;;;;;;;2.15;0.75;;;;;;;;;;5030267;28;20113;-72
2022/09/27 12:29:21;;;;;;;2.13;0.93;;;;;;;;;;5033724;28;20441;-71
2022/09/27 12:32:00;;;;;;;2.03;0.90;;;;;;;;;;5019945;28;20045;-71
2022/09/27 12:34:29;;;;;;;6.55;1.60;;;;;;;;;;5049508;28;20121;-71
2022/09/27 12:37:03;;;;;;;3.47;1.08;;;12.20;99.90;;;;;;5049533;28;20050;-71
2022/09/27 12:39:59;;;;;;;3.20;1.10;;;12.20;99.90;;;;;;5016759;28;20045;-73
2022/09/27 12:43:04;;;;;;;4.07;0.90;;;12.00;99.90;;;;;;5016704;28;20079;-73
2022/09/27 12:45:36;;;;;;;6.15;1.00;;;;;;;;;;5016592;28;20142;-72
2022/09/27 12:48:17;;;;;;;3.00;0.75;;;11.50;99.90;;;;;;5016988;28;20061;-73
2022/09/27 12:50:52;;;;;;;5.03;1.15;;;;;;;;;;5033072;28;20060;-72
2022/09/27 12:53:49;;;;;;;5.78;1.77;;;11.40;99.90;;;;;;5032987;28;20045;-72
2022/09/27 12:56:34;;;;;;;3.85;1.00;;;;;;;;;;5016658;28;20125;-72
2022/09/27 12:59:40;;;;;;;3.15;0.80;;;11.40;99.90;;;;;;5032843;28;20501;-71
2022/09/27 13:02:10;;;;;;;8.60;1.40;;;;;;;;;;5033020;28;20535;-73
2022/09/27 13:04:50;;;;;;;5.32;1.58;;;12.10;99.90;;;;;;5032935;28;20136;-72
2022/09/27 13:07:51;;;;;;;4.40;1.10;;;11.20;99.90;;;;;;5032520;28;20044;-72
2022/09/27 13:10:45;;;;;;;6.80;1.40;;;;;;;;;;5016963;28;20041;-72
2022/09/27 13:13:13;;;;;;;7.68;1.08;;;11.30;99.90;;;;;;5032683;28;20100;-72
2022/09/27 13:15:44;;;;;;;5.40;1.58;;;11.00;99.90;;;;;;5032791;28;20037;-72
2022/09/27 13:18:34;;;;;;;6.63;1.17;;;11.30;99.90;;;;;;5015730;28;20045;-72
2022/09/27 13:21:03;;;;;;;4.70;0.95;;;11.30;99.90;;;;;;5032688;28;20037;-71
2022/09/27 13:23:30;;;;;;;5.28;1.02;;;;;;;;;;5032754;28;20095;-71
2022/09/27 13:26:20;;;;;;;5.07;0.90;;;11.30;99.90;;;;;;5016414;28;20045;-70
2022/09/27 13:28:49;;;;;;;2.58;0.73;;;;;;;;;;5016561;28;20037;-71
2022/09/27 13:31:58;;;;;;;1.77;0.70;;;11.40;99.90;;;;;;5032800;28;20057;-70
2022/09/27 13:34:57;;;;;;;1.33;0.70;;;11.50;99.90;;;;;;5016040;28;20462;-70
2022/09/27 13:37:38;;;;;;;1.30;0.70;;;11.50;99.90;;;;;;5014845;28;20466;-70
2022/09/27 13:40:31;;;;;;;5.03;0.87;;;11.50;99.90;;;;;;5015703;28;20053;-71
2022/09/27 13:43:09;;;;;;;1.75;0.80;;;;;;;;;;5031975;28;20640;-71
2022/09/27 13:45:54;;;;;;;3.65;0.90;;;11.80;99.90;;;;;;5016418;28;20055;-70
2022/09/27 13:48:42;;;;;;;2.70;0.82;;;11.60;99.90;;;;;;5030922;28;20378;-70
2022/09/27 13:51:20;;;;;;;1.02;0.60;;;;;;;;;;5032340;28;20500;-69
2022/09/27 13:53:59;;;;;;;4.22;0.93;;;11.80;99.90;;;;;;5031325;28;20498;-73
2022/09/27 13:56:52;;;;;;;3.15;0.82;;;11.70;99.90;;;;;;5029130;28;20132;-71
2022/09/27 13:59:31;;;;;;;1.08;0.77;;;;;;;;;;5031710;28;20069;-71
2022/09/27 14:02:22;;;;;;;2.70;0.93;;;11.90;99.90;;;;;;5015914;28;20052;-71
2022/09/27 14:04:55;;;;;;;2.35;0.60;;;12.10;99.90;;;;;;5012155;28;20084;-70
2022/09/27 14:07:25;;;;;;;2.92;0.77;;;12.50;99.90;;;;;;5011721;28;20128;-70
2022/09/27 14:09:53;;;;;;;1.70;0.75;;;12.30;99.90;;;;;;5015016;28;20055;-70
2022/09/27 14:12:39;;;;;;;3.70;1.10;;;12.30;99.90;;;;;;5031992;28;20493;-70
2022/09/27 14:15:09;;;;;;;2.58;0.90;;;12.40;99.90;;;;;;5012206;28;20046;-70
2022/09/27 14:17:44;;;;;;;3.13;1.15;;;;;;;;;;4996371;28;20153;-70
2022/09/27 14:20:36;;;;;;;2.25;1.13;;;12.40;99.90;;;;;;5031664;28;20124;-70
2022/09/27 14:23:02;;;;;;;1.50;0.90;;;;;;;;;;5032610;28;20042;-71
2022/09/27 14:25:29;;;;;;;1.58;0.80;;;;;;;;;;5031582;28;20045;-70
2022/09/27 14:27:57;;;;;;;3.47;1.00;;;;;;;;;;5031424;28;20131;-71
2022/09/27 14:30:26;;;;;;;1.73;1.05;;;12.40;99.90;;;;;;5036351;28;20037;-74
2022/09/27 14:32:54;;;;;;;4.28;1.30;;;12.40;99.90;;;;;;5012357;28;20446;-73